createdAt,value
2019-06-07T00:01:01.774Z,96894.78
2019-06-07T00:03:32.089Z,96898.30
2019-06-07T00:06:02.279Z,96889.89
2019-06-07T00:08:32.661Z,96898.30
2019-06-07T00:11:02.894Z,96906.88
2019-06-07T00:13:33.177Z,96904.67
2019-06-07T00:16:03.563Z,96908.22
2019-06-07T00:18:33.759Z,96904.19
2019-06-07T00:21:04.100Z,96902.46
2019-06-07T00:23:34.359Z,96905.63
2019-06-07T00:26:04.830Z,96910.53
2019-06-07T00:28:35.109Z,96911.87
2019-06-07T00:31:06.462Z,96912.73
2019-06-07T00:33:36.823Z,96912.34
2019-06-07T00:36:07.148Z,96912.34
2019-06-07T00:38:37.425Z,96912.47
2019-06-07T00:41:07.601Z,96911.98
2019-06-07T00:43:37.992Z,96918.71
2019-06-07T00:46:08.297Z,96920.05
2019-06-07T00:48:38.473Z,96920.53
2019-06-07T00:51:08.652Z,96920.17
2019-06-07T00:53:38.969Z,96923.22
2019-06-07T00:56:09.372Z,96924.09
2019-06-07T00:58:39.565Z,96926.03
2019-06-07T01:01:09.843Z,96929.58
2019-06-07T01:03:40.161Z,96928.24
2019-06-07T01:06:10.460Z,96933.62
2019-06-07T01:08:40.709Z,96935.44
2019-06-07T01:11:13.493Z,96932.75
2019-06-07T01:13:43.956Z,96937.26
2019-06-07T01:16:16.156Z,96941.69
2019-06-07T01:18:51.024Z,96944.37
2019-06-07T01:21:21.720Z,96941.30
2019-06-07T01:24:11.973Z,96936.39
2019-06-07T01:26:26.762Z,96941.77
2019-06-07T01:28:54.653Z,96942.63
2019-06-07T01:31:27.899Z,96936.91
2019-06-07T01:33:56.948Z,96943.63
2019-06-07T01:36:29.564Z,96944.45
2019-06-07T01:39:00.656Z,96950.82
2019-06-07T01:41:32.538Z,96947.27
2019-06-07T01:44:02.774Z,96951.30
2019-06-07T01:46:33.025Z,96954.46
2019-06-07T01:49:03.424Z,96957.16
2019-06-07T01:51:33.670Z,96956.67
2019-06-07T01:56:36.342Z,96958.02
2019-06-07T01:59:06.508Z,96961.69
2019-06-07T02:01:36.934Z,96961.69
2019-06-07T02:04:07.271Z,96965.72
2019-06-07T02:06:37.632Z,96970.23
2019-06-07T02:09:08.198Z,96964.86
2019-06-07T02:11:38.718Z,96970.71
2019-06-07T02:14:08.930Z,96976.09
2019-06-07T02:16:40.317Z,96978.30
2019-06-07T02:19:10.605Z,96972.53
2019-06-07T02:21:40.910Z,96972.92
2019-06-07T02:24:11.145Z,96976.95
2019-06-07T02:26:41.439Z,96978.77
2019-06-07T02:29:11.613Z,96980.12
2019-06-07T02:31:41.909Z,96981.94
2019-06-07T02:34:12.149Z,96983.80
2019-06-07T02:36:42.297Z,96983.28
2019-06-07T02:39:12.592Z,96981.11
2019-06-07T02:41:42.913Z,96986.95
2019-06-07T02:44:13.324Z,96988.30
2019-06-07T02:46:48.720Z,96980.72
2019-06-07T02:49:15.511Z,96978.03
2019-06-07T02:51:45.845Z,96983.41
2019-06-07T02:54:16.142Z,96982.53
2019-06-07T02:56:57.829Z,96982.06
2019-06-07T02:59:42.182Z,96982.53
2019-06-07T03:01:52.363Z,96986.56
2019-06-07T03:04:22.654Z,96995.14
2019-06-07T03:06:53.003Z,96996.84
2019-06-07T03:09:23.301Z,96999.05
2019-06-07T03:11:53.852Z,97001.86
2019-06-07T03:14:24.370Z,97004.91
2019-06-07T03:17:08.796Z,97003.56
2019-06-07T03:19:42.505Z,97007.59
2019-06-07T03:22:12.677Z,96999.17
2019-06-07T03:24:44.177Z,96996.48
2019-06-07T03:27:36.126Z,97000.00
2019-06-07T03:29:46.794Z,97005.50
2019-06-07T03:32:17.195Z,97005.50
2019-06-07T03:34:47.450Z,97000.13
2019-06-07T03:37:17.681Z,97007.71
2019-06-07T03:39:47.998Z,97010.40
2019-06-07T03:42:18.227Z,97006.97
2019-06-07T03:44:48.423Z,97019.41
2019-06-07T03:47:18.645Z,97028.83
2019-06-07T03:49:48.951Z,97030.67
2019-06-07T03:52:19.296Z,97034.20
2019-06-07T03:54:49.493Z,97032.38
2019-06-07T03:57:19.664Z,97041.30
2019-06-07T03:59:49.925Z,97048.02
2019-06-07T04:02:20.176Z,97049.84
2019-06-07T04:04:50.469Z,97053.01
2019-06-07T04:07:20.625Z,97057.43
2019-06-07T04:09:50.909Z,97056.56
2019-06-07T04:12:21.244Z,97052.06
2019-06-07T04:14:51.399Z,97050.72
2019-06-07T04:17:21.802Z,97055.22
2019-06-07T04:19:52.039Z,97060.59
2019-06-07T04:22:22.435Z,97067.31
2019-06-07T04:24:52.633Z,97070.48
2019-06-07T04:27:22.991Z,97067.80
2019-06-07T04:30:06.812Z,97067.31
2019-06-07T04:32:25.290Z,97070.00
2019-06-07T04:34:56.613Z,97066.95
2019-06-07T04:37:27.026Z,97069.14
2019-06-07T04:39:57.253Z,97065.10
2019-06-07T04:42:29.794Z,97065.97
2019-06-07T04:44:59.668Z,97067.80
2019-06-07T04:47:33.783Z,97076.72
2019-06-07T04:50:02.759Z,97068.30
2019-06-07T04:52:35.976Z,97058.03
2019-06-07T04:55:05.162Z,97057.55
2019-06-07T04:57:37.609Z,97062.06
2019-06-07T05:00:46.579Z,97058.89
2019-06-07T05:02:42.738Z,97061.58
2019-06-07T05:05:11.308Z,97063.77
2019-06-07T05:07:46.104Z,97069.64
2019-06-07T05:10:13.376Z,97073.67
2019-06-07T05:12:44.377Z,97077.70
2019-06-07T05:15:14.716Z,97084.42
2019-06-07T05:17:45.293Z,97081.23
2019-06-07T05:20:16.079Z,97072.33
2019-06-07T05:22:46.421Z,97081.23
2019-06-07T05:25:16.844Z,97082.58
2019-06-07T05:27:47.191Z,97085.27
2019-06-07T05:31:03.004Z,97083.92
2019-06-07T05:33:09.152Z,97088.34
2019-06-07T05:35:41.728Z,97080.75
2019-06-07T05:38:11.233Z,97077.20
2019-06-07T05:40:43.850Z,97074.91
2019-06-07T05:43:24.767Z,97081.98
2019-06-07T05:45:55.116Z,97078.06
2019-06-07T05:48:26.787Z,97076.25
2019-06-07T05:50:57.885Z,97073.08
2019-06-07T05:53:29.358Z,97072.22
2019-06-07T05:55:59.500Z,97069.89
2019-06-07T05:58:29.758Z,97067.11
2019-06-07T06:01:40.810Z,97063.55
2019-06-07T06:03:31.893Z,97063.16
2019-06-07T06:06:02.181Z,97071.63
2019-06-07T06:08:36.126Z,97069.41
2019-06-07T06:11:06.597Z,97063.55
2019-06-07T06:13:55.062Z,97064.91
2019-06-07T06:16:08.897Z,97061.73
2019-06-07T06:18:40.737Z,97066.25
2019-06-07T06:21:19.306Z,97066.60
2019-06-07T06:23:45.877Z,97067.11
2019-06-07T06:26:14.902Z,97077.36
2019-06-07T06:28:45.442Z,97081.89
2019-06-07T06:31:15.698Z,97087.63
2019-06-07T06:33:47.477Z,97088.50
2019-06-07T06:36:18.026Z,97095.22
2019-06-07T06:38:49.764Z,97102.80
2019-06-07T06:41:21.122Z,97101.07
2019-06-07T06:43:52.585Z,97112.21
2019-06-07T06:46:37.920Z,97107.67
2019-06-07T06:48:55.859Z,97106.33
2019-06-07T06:51:26.189Z,97099.25
2019-06-07T06:53:56.381Z,97104.15
2019-06-07T06:56:26.625Z,97109.52
2019-06-07T07:01:28.697Z,97111.23
2019-06-07T07:04:11.392Z,97114.30
2019-06-07T07:06:30.955Z,97112.09
2019-06-07T07:09:01.339Z,97116.60
2019-06-07T07:11:33.370Z,97117.47
2019-06-07T07:14:03.806Z,97122.45
2019-06-07T07:16:34.055Z,97117.00
2019-06-07T07:19:04.241Z,97108.06
2019-06-07T07:21:34.545Z,97097.79
2019-06-07T07:24:20.902Z,97110.75
2019-06-07T07:26:36.886Z,97108.54
2019-06-07T07:29:07.233Z,97113.44
2019-06-07T07:31:37.522Z,97106.72
2019-06-07T07:34:32.060Z,97103.55
2019-06-07T07:36:40.095Z,97101.34
2019-06-07T07:39:10.330Z,97107.08
2019-06-07T07:41:40.637Z,97100.36
2019-06-07T07:44:11.013Z,97108.93
2019-06-07T07:46:41.409Z,97115.14
2019-06-07T07:49:11.809Z,97117.35
2019-06-07T07:51:42.056Z,97119.17
2019-06-07T07:54:12.231Z,97120.04
2019-06-07T07:56:42.516Z,97114.66
2019-06-07T07:59:12.822Z,97115.05
2019-06-07T08:01:43.059Z,97112.37
2019-06-07T08:04:13.355Z,97109.77
2019-06-07T08:06:43.523Z,97111.02
2019-06-07T08:09:13.894Z,97108.81
2019-06-07T08:11:44.247Z,97105.26
2019-06-07T08:14:14.568Z,97101.62
2019-06-07T08:16:44.952Z,97105.14
2019-06-07T08:19:15.213Z,97103.44
2019-06-07T08:21:47.531Z,97101.62
2019-06-07T08:24:17.410Z,97102.45
2019-06-07T08:27:13.025Z,97096.23
2019-06-07T08:29:19.665Z,97090.87
2019-06-07T08:31:51.897Z,97093.05
2019-06-07T08:34:21.889Z,97092.09
2019-06-07T08:36:54.921Z,97095.26
2019-06-07T08:39:25.085Z,97087.67
2019-06-07T08:42:13.782Z,97095.73
2019-06-07T08:44:27.373Z,97092.09
2019-06-07T08:47:16.664Z,97088.53
2019-06-07T08:49:29.637Z,97098.81
2019-06-07T08:52:09.914Z,97099.68
2019-06-07T08:54:31.899Z,97090.27
2019-06-07T08:57:20.055Z,97096.59
2019-06-07T08:59:35.143Z,97101.38
2019-06-07T09:02:20.945Z,97098.81
2019-06-07T09:04:37.372Z,97096.48
2019-06-07T09:07:18.903Z,97095.65
2019-06-07T09:09:39.498Z,97089.28
2019-06-07T09:12:11.421Z,97092.36
2019-06-07T09:14:58.611Z,97089.77
2019-06-07T09:17:14.734Z,97084.89
2019-06-07T09:19:45.065Z,97084.89
2019-06-07T09:22:15.346Z,97083.04
2019-06-07T09:24:46.660Z,97092.84
2019-06-07T09:27:17.349Z,97091.97
2019-06-07T09:29:47.500Z,97084.38
2019-06-07T09:32:18.678Z,97086.59
2019-06-07T09:34:50.063Z,97089.28
2019-06-07T09:38:03.708Z,97083.91
2019-06-07T09:39:52.370Z,97082.09
2019-06-07T09:42:22.662Z,97078.53
2019-06-07T09:44:53.170Z,97084.77
2019-06-07T09:47:32.208Z,97082.09
2019-06-07T09:49:56.757Z,97078.05
2019-06-07T09:52:27.623Z,97074.02
2019-06-07T09:55:21.702Z,97074.02
2019-06-07T09:57:29.661Z,97066.31
2019-06-07T10:00:01.848Z,97071.34
2019-06-07T10:02:31.848Z,97068.17
2019-06-07T10:05:05.210Z,97062.28
2019-06-07T10:07:34.120Z,97064.50
2019-06-07T10:10:22.381Z,97061.80
2019-06-07T10:12:36.425Z,97060.11
2019-06-07T10:15:07.069Z,97059.23
2019-06-07T10:17:37.388Z,97061.80
2019-06-07T10:20:07.679Z,97055.95
2019-06-07T10:22:37.957Z,97051.53
2019-06-07T10:25:08.612Z,97050.58
2019-06-07T10:27:38.910Z,97051.92
2019-06-07T10:30:10.429Z,97046.16
2019-06-07T10:32:40.695Z,97047.89
2019-06-07T10:35:13.855Z,97054.13
2019-06-07T10:37:43.081Z,97043.37
2019-06-07T10:40:13.498Z,97039.34
2019-06-07T10:42:43.677Z,97044.72
2019-06-07T10:45:14.019Z,97050.10
2019-06-07T10:47:44.254Z,97042.87
2019-06-07T10:50:15.442Z,97032.12
2019-06-07T10:52:45.734Z,97034.80
2019-06-07T10:55:16.225Z,97030.77
2019-06-07T10:57:46.413Z,97026.38
2019-06-07T11:00:16.717Z,97027.13
2019-06-07T11:02:47.048Z,97024.05
2019-06-07T11:05:17.243Z,97020.89
2019-06-07T11:07:47.398Z,97018.67
2019-06-07T11:10:20.017Z,97019.06
2019-06-07T11:12:49.639Z,97019.42
2019-06-07T11:15:19.793Z,97016.73
2019-06-07T11:17:50.205Z,97020.77
2019-06-07T11:20:20.498Z,97020.77
2019-06-07T11:22:50.714Z,97022.98
2019-06-07T11:25:20.936Z,97021.63
2019-06-07T11:27:51.194Z,97013.56
2019-06-07T11:30:21.522Z,97018.83
2019-06-07T11:32:51.752Z,97010.88
2019-06-07T11:35:22.982Z,97011.23
2019-06-07T11:37:53.375Z,97005.86
2019-06-07T11:40:34.479Z,97005.38
2019-06-07T11:42:55.558Z,97006.73
2019-06-07T11:45:25.785Z,97004.91
2019-06-07T11:47:55.996Z,96999.53
2019-06-07T11:50:26.307Z,96994.15
2019-06-07T11:52:56.548Z,96987.43
2019-06-07T11:55:26.703Z,96983.40
2019-06-07T11:57:56.933Z,96978.89
2019-06-07T12:00:27.210Z,96977.03
2019-06-07T12:02:57.446Z,96976.55
2019-06-07T12:05:27.740Z,96969.36
2019-06-07T12:07:58.005Z,96972.40
2019-06-07T12:10:41.819Z,96966.19
2019-06-07T12:13:00.228Z,96962.98
2019-06-07T12:15:30.467Z,96964.72
2019-06-07T12:18:00.716Z,96959.83
2019-06-07T12:20:31.035Z,96955.31
2019-06-07T12:23:01.442Z,96950.80
2019-06-07T12:25:31.616Z,96951.64
2019-06-07T12:28:01.989Z,96944.08
2019-06-07T12:30:32.326Z,96944.44
2019-06-07T12:33:02.643Z,96943.57
2019-06-07T12:35:32.803Z,96946.17
2019-06-07T12:38:03.313Z,96944.83
2019-06-07T12:40:33.597Z,96942.13
2019-06-07T12:43:03.839Z,96936.25
2019-06-07T12:45:44.580Z,96932.22
2019-06-07T12:48:06.252Z,96927.83
2019-06-07T12:50:43.094Z,96926.00
2019-06-07T12:53:08.510Z,96930.03
2019-06-07T12:55:38.809Z,96935.30
2019-06-07T12:58:09.053Z,96929.91
2019-06-07T13:00:39.290Z,96927.23
2019-06-07T13:03:09.592Z,96924.53
2019-06-07T13:05:39.731Z,96928.45
2019-06-07T13:08:10.015Z,96922.72
2019-06-07T13:10:40.263Z,96922.20
2019-06-07T13:13:10.554Z,96923.55
2019-06-07T13:15:40.827Z,96926.23
2019-06-07T13:18:14.887Z,96920.38
2019-06-07T13:20:43.237Z,96910.61
2019-06-07T13:23:13.492Z,96908.67
2019-06-07T13:25:46.573Z,96909.50
2019-06-07T13:28:17.251Z,96911.27
2019-06-07T13:30:47.733Z,96897.82
2019-06-07T13:33:19.114Z,96897.34
2019-06-07T13:35:49.298Z,96903.08
2019-06-07T13:38:26.199Z,96899.04
2019-06-07T13:40:57.322Z,96895.88
2019-06-07T13:43:28.182Z,96892.70
2019-06-07T13:45:58.681Z,96883.30
2019-06-07T13:48:29.099Z,96889.50
2019-06-07T13:50:59.300Z,96890.76
2019-06-07T13:53:29.548Z,96891.11
2019-06-07T13:55:59.704Z,96891.11
2019-06-07T13:58:29.923Z,96890.16
2019-06-07T14:01:00.166Z,96887.82
2019-06-07T14:03:33.624Z,96886.00
2019-06-07T14:06:02.362Z,96886.35
2019-06-07T14:08:32.601Z,96890.38
2019-06-07T14:11:02.937Z,96883.19
2019-06-07T14:13:33.252Z,96887.22
2019-06-07T14:16:03.444Z,96878.67
2019-06-07T14:18:33.710Z,96872.81
2019-06-07T14:21:04.005Z,96871.34
2019-06-07T14:23:48.266Z,96873.04
2019-06-07T14:26:06.265Z,96874.90
2019-06-07T14:28:36.521Z,96874.39
2019-06-07T14:31:06.705Z,96872.56
2019-06-07T14:33:37.202Z,96876.98
2019-06-07T14:36:07.479Z,96880.50
2019-06-07T14:38:38.034Z,96881.84
2019-06-07T14:41:08.438Z,96878.20
2019-06-07T14:43:38.600Z,96877.72
2019-06-07T14:46:08.898Z,96882.11
2019-06-07T14:48:39.212Z,96875.87
2019-06-07T14:51:09.542Z,96882.50
2019-06-07T14:53:39.781Z,96879.80
2019-06-07T14:56:10.083Z,96879.30
2019-06-07T14:58:43.427Z,96876.60
2019-06-07T15:01:12.410Z,96879.68
2019-06-07T15:03:42.615Z,96873.82
2019-06-07T15:06:13.045Z,96868.92
2019-06-07T15:08:43.313Z,96864.41
2019-06-07T15:11:13.555Z,96865.75
2019-06-07T15:13:43.815Z,96867.45
2019-06-07T15:16:14.074Z,96863.41
2019-06-07T15:18:44.357Z,96862.94
2019-06-07T15:21:14.557Z,96865.98
2019-06-07T15:23:44.860Z,96861.47
2019-06-07T15:26:15.163Z,96860.12
2019-06-07T15:28:45.490Z,96860.50
2019-06-07T15:31:15.701Z,96860.50
2019-06-07T15:33:46.886Z,96853.27
2019-06-07T15:36:17.166Z,96855.00
2019-06-07T15:38:47.435Z,96850.48
2019-06-07T15:41:17.652Z,96848.62
2019-06-07T15:43:47.981Z,96859.30
2019-06-07T15:46:18.249Z,96852.66
2019-06-07T15:48:48.478Z,96849.02
2019-06-07T15:51:18.706Z,96850.36
2019-06-07T15:53:48.938Z,96843.16
2019-06-07T15:56:19.234Z,96858.30
2019-06-07T15:58:49.605Z,96851.09
2019-06-07T16:01:19.901Z,96851.09
2019-06-07T16:03:50.235Z,96855.13
2019-06-07T16:06:20.532Z,96846.58
2019-06-07T16:08:52.126Z,96854.14
2019-06-07T16:11:22.404Z,96853.66
2019-06-07T16:13:52.753Z,96854.14
2019-06-07T16:16:23.071Z,96859.52
2019-06-07T16:18:53.380Z,96855.00
2019-06-07T16:21:23.562Z,96851.45
2019-06-07T16:23:53.758Z,96858.56
2019-06-07T16:26:23.994Z,96851.83
2019-06-07T16:28:57.191Z,96846.94
2019-06-07T16:31:26.193Z,96846.58
2019-06-07T16:33:56.434Z,96853.18
2019-06-07T16:36:26.681Z,96860.38
2019-06-07T16:38:56.984Z,96855.00
2019-06-07T16:41:27.143Z,96853.30
2019-06-07T16:43:57.461Z,96851.45
2019-06-07T16:46:27.745Z,96853.66
2019-06-07T16:48:57.986Z,96844.72
2019-06-07T16:51:28.287Z,96853.30
2019-06-07T16:53:58.529Z,96850.62
2019-06-07T16:56:28.837Z,96850.62
2019-06-07T16:58:59.197Z,96846.58
2019-06-07T17:01:29.430Z,96854.66
2019-06-07T17:03:59.716Z,96852.80
2019-06-07T17:06:29.989Z,96856.48
2019-06-07T17:09:00.182Z,96857.82
2019-06-07T17:11:32.742Z,96857.82
2019-06-07T17:14:03.131Z,96859.64
2019-06-07T17:16:33.451Z,96861.47
2019-06-07T17:19:03.618Z,96866.02
2019-06-07T17:21:34.044Z,96868.71
2019-06-07T17:24:04.317Z,96869.19
2019-06-07T17:26:34.505Z,96859.30
2019-06-07T17:29:04.768Z,96858.91
2019-06-07T17:31:35.333Z,96859.77
2019-06-07T17:34:05.611Z,96850.84
2019-06-07T17:36:35.863Z,96851.83
2019-06-07T17:39:07.949Z,96849.14
2019-06-07T17:41:52.513Z,96845.58
2019-06-07T17:44:10.382Z,96845.11
2019-06-07T17:46:41.594Z,96845.58
2019-06-07T17:49:11.794Z,96857.21
2019-06-07T17:51:42.014Z,96861.72
2019-06-07T17:54:12.313Z,96858.17
2019-06-07T17:56:42.611Z,96853.78
2019-06-07T17:59:12.868Z,96847.41
2019-06-07T18:02:05.868Z,96836.77
2019-06-07T18:04:15.038Z,96839.82
2019-06-07T18:06:45.423Z,96838.47
2019-06-07T18:09:16.197Z,96836.30
2019-06-07T18:11:47.824Z,96840.81
2019-06-07T18:14:18.185Z,96843.02
2019-06-07T18:16:48.474Z,96843.98
2019-06-07T18:19:18.646Z,96841.29
2019-06-07T18:21:49.765Z,96844.46
2019-06-07T18:24:20.865Z,96852.53
2019-06-07T18:26:51.180Z,96852.17
2019-06-07T18:29:21.410Z,96853.05
2019-06-07T18:31:52.881Z,96851.31
2019-06-07T18:34:23.184Z,96856.56
2019-06-07T18:36:53.465Z,96867.45
2019-06-07T18:39:24.590Z,96866.11
2019-06-07T18:41:55.394Z,96867.93
2019-06-07T18:44:25.653Z,96873.31
2019-06-07T18:46:55.952Z,96884.07
2019-06-07T18:49:26.429Z,96884.07
2019-06-07T18:52:15.105Z,96897.52
2019-06-07T18:54:46.810Z,96904.75
2019-06-07T18:57:17.079Z,96916.47
2019-06-07T18:59:48.406Z,96918.30
2019-06-07T19:02:18.653Z,96922.33
2019-06-07T19:04:50.593Z,96926.88
2019-06-07T19:07:20.877Z,96928.58
2019-06-07T19:09:51.171Z,96938.98
2019-06-07T19:12:21.471Z,96941.16
2019-06-07T19:14:51.722Z,96935.78
2019-06-07T19:17:21.991Z,96942.15
2019-06-07T19:19:52.216Z,96947.53
2019-06-07T19:22:22.555Z,96952.91
2019-06-07T19:24:54.054Z,96959.63
2019-06-07T19:27:24.340Z,96963.19
2019-06-07T19:29:54.671Z,96965.48
2019-06-07T19:32:24.897Z,96970.88
2019-06-07T19:34:55.319Z,96966.84
2019-06-07T19:37:25.622Z,96962.80
2019-06-07T19:39:55.880Z,96971.86
2019-06-07T19:42:26.075Z,96972.70
2019-06-07T19:45:08.798Z,96972.70
2019-06-07T19:47:29.294Z,96979.42
2019-06-07T19:50:00.819Z,96985.31
2019-06-07T19:52:32.293Z,96980.41
2019-06-07T19:55:06.793Z,96972.81
2019-06-07T19:57:34.593Z,96975.89
2019-06-07T20:00:13.700Z,96978.20
2019-06-07T20:02:38.055Z,96979.93
2019-06-07T20:05:09.783Z,96970.61
2019-06-07T20:07:40.069Z,96978.67
2019-06-07T20:10:10.357Z,96982.23
2019-06-07T20:12:40.601Z,96982.70
2019-06-07T20:15:28.026Z,96982.70
2019-06-07T20:17:42.805Z,96991.64
2019-06-07T20:20:14.313Z,96996.16
2019-06-07T20:22:44.538Z,96996.16
2019-06-07T20:25:14.866Z,96996.67
2019-06-07T20:27:45.073Z,97004.73
2019-06-07T20:30:15.240Z,97006.08
2019-06-07T20:32:46.537Z,97011.07
2019-06-07T20:35:16.704Z,97007.91
2019-06-07T20:37:46.968Z,97010.12
2019-06-07T20:40:24.394Z,97003.88
2019-06-07T20:42:49.259Z,97009.25
2019-06-07T20:45:32.510Z,97016.45
2019-06-07T20:47:51.549Z,97012.80
2019-06-07T20:50:21.907Z,97017.92
2019-06-07T20:52:52.291Z,97017.92
2019-06-07T20:55:22.578Z,97019.62
2019-06-07T20:57:53.782Z,97022.82
2019-06-07T21:00:23.923Z,97022.31
2019-06-07T21:02:54.137Z,97025.98
2019-06-07T21:05:24.414Z,97040.78
2019-06-07T21:07:54.596Z,97038.56
2019-06-07T21:10:24.968Z,97040.03
2019-06-07T21:12:55.204Z,97039.44
2019-06-07T21:15:25.508Z,97033.31
2019-06-07T21:17:55.707Z,97043.95
2019-06-07T21:20:25.954Z,97044.06
2019-06-07T21:22:56.229Z,97039.55
2019-06-07T21:25:26.498Z,97043.20
2019-06-07T21:27:56.711Z,97036.00
2019-06-07T21:30:27.161Z,97042.72
2019-06-07T21:32:57.454Z,97031.09
2019-06-07T21:35:27.645Z,97045.02
2019-06-07T21:37:57.892Z,97045.02
2019-06-07T21:40:28.078Z,97042.33
2019-06-07T21:42:58.276Z,97055.78
2019-06-07T21:45:28.561Z,97049.56
2019-06-07T21:47:58.879Z,97046.37
2019-06-07T21:50:29.123Z,97050.91
2019-06-07T21:53:00.284Z,97054.95
2019-06-07T21:55:30.588Z,97052.73
2019-06-07T21:58:00.892Z,97056.77
2019-06-07T22:01:09.966Z,97057.64
2019-06-07T22:03:42.287Z,97049.56
2019-06-07T22:06:13.756Z,97054.20
2019-06-07T22:08:45.149Z,97058.59
2019-06-07T22:11:15.429Z,97053.69
2019-06-07T22:13:45.669Z,97052.34
2019-06-07T22:16:26.176Z,97057.25
2019-06-07T22:18:48.118Z,97057.25
2019-06-07T22:21:18.337Z,97056.38
2019-06-07T22:23:48.578Z,97055.91
2019-06-07T22:26:18.873Z,97049.66
2019-06-07T22:28:49.106Z,97054.20
2019-06-07T22:31:19.412Z,97061.41
2019-06-07T22:33:49.747Z,97059.06
2019-06-07T22:36:19.969Z,97048.82
2019-06-07T22:38:50.498Z,97056.38
2019-06-07T22:41:21.056Z,97057.25
2019-06-07T22:43:51.360Z,97058.23
2019-06-07T22:46:36.303Z,97050.64
2019-06-07T22:48:53.518Z,97039.89
2019-06-07T22:51:24.085Z,97033.16
2019-06-07T22:53:54.369Z,97022.41
2019-06-07T22:56:32.916Z,97027.78
2019-06-07T22:59:03.321Z,97026.92
2019-06-07T23:01:33.710Z,97035.37
2019-06-07T23:04:03.967Z,97033.64
2019-06-07T23:06:34.211Z,97033.64
2019-06-07T23:09:05.217Z,97040.84
2019-06-07T23:11:35.633Z,97049.77
2019-06-07T23:14:05.794Z,97052.95
2019-06-07T23:16:54.006Z,97060.05
2019-06-07T23:19:08.062Z,97056.50
2019-06-07T23:21:38.384Z,97058.32
2019-06-07T23:24:09.745Z,97058.83
2019-06-07T23:26:41.128Z,97053.93
2019-06-07T23:29:12.387Z,97051.24
2019-06-07T23:31:42.742Z,97053.06
2019-06-07T23:34:13.065Z,97063.82
2019-06-07T23:36:43.287Z,97064.69
2019-06-07T23:39:13.484Z,97061.61
2019-06-07T23:41:43.675Z,97067.37
2019-06-07T23:44:15.301Z,97051.24
2019-06-07T23:46:45.703Z,97050.02
2019-06-07T23:49:15.999Z,97057.09
2019-06-07T23:51:46.257Z,97058.44
2019-06-07T23:54:17.758Z,97062.48
2019-06-07T23:56:48.184Z,97063.34
2019-06-07T23:59:18.418Z,97047.33
